Time;durP1;ratioP1;P1;durP2;ratioP2;P2;SDS_P1;SDS_P2;PMS_P1;PMS_P2;Temp;Humidity;BMP_temperature;BMP_pressure;BME280_temperature;BME280_humidity;BME280_pressure;Samples;Min_cycle;Max_cycle;Signal;HPM_P1;HPM_P2
2023/10/26 00:02:26;;;;;;;2.28;1.77;;;10.50;99.90;;;11.18;100.00;96196.34;10401894;23;20232;-67
2023/10/26 00:07:29;;;;;;;1.90;1.55;;;10.60;99.90;;;11.28;100.00;96194.09;10492512;28;20278;-67
2023/10/26 00:12:32;;;;;;;1.40;1.30;;;10.70;99.90;;;11.32;100.00;96194.19;10501897;28;20714;-69
2023/10/26 00:17:38;;;;;;;1.98;1.88;;;10.70;99.90;;;11.32;100.00;96191.63;10520022;28;20596;-67
2023/10/26 00:22:41;;;;;;;1.92;1.75;;;10.70;99.90;;;11.37;100.00;96192.63;10529167;28;20277;-68
2023/10/26 00:27:44;;;;;;;1.70;1.60;;;10.70;99.90;;;11.37;100.00;96193.47;10530291;28;20234;-67
2023/10/26 00:32:48;;;;;;;2.35;1.70;;;10.80;99.90;;;11.45;100.00;96192.00;10523424;28;20231;-68
2023/10/26 00:37:51;;;;;;;1.70;1.60;;;10.90;99.90;;;11.42;100.00;96191.06;10522533;28;20601;-69
2023/10/26 00:43:00;;;;;;;1.80;1.70;;;10.80;99.90;;;11.48;100.00;96194.63;10530439;28;20625;-67
2023/10/26 00:48:06;;;;;;;1.40;1.30;;;10.80;99.90;;;11.59;100.00;96189.81;10518850;28;20229;-68
2023/10/26 00:53:10;;;;;;;1.88;1.60;;;10.90;99.90;;;11.63;100.00;96191.59;10528187;28;20235;-66
2023/10/26 00:58:15;;;;;;;1.42;1.35;;;11.00;99.90;;;11.69;100.00;96199.44;10527183;28;20234;-68
2023/10/26 01:03:19;;;;;;;1.50;1.42;;;11.10;99.90;;;11.80;100.00;96196.28;10522240;28;20224;-66
2023/10/26 01:08:23;;;;;;;3.33;1.77;;;11.10;99.90;;;11.80;100.00;96193.72;10525124;28;20228;-68
2023/10/26 01:13:26;;;;;;;1.58;1.20;;;11.20;99.90;;;11.72;100.00;96199.50;10521471;28;20771;-68
2023/10/26 01:18:31;;;;;;;2.05;1.50;;;11.10;99.90;;;11.61;100.00;96197.50;10524558;28;20307;-68
2023/10/26 01:23:36;;;;;;;1.60;1.50;;;11.00;99.90;;;11.62;100.00;96195.00;10524929;28;20232;-68
2023/10/26 01:28:39;;;;;;;2.15;1.40;;;10.90;99.90;;;11.48;100.00;96201.44;10524982;28;20223;-68
2023/10/26 01:33:43;;;;;;;1.58;1.48;;;10.80;99.90;;;11.45;100.00;96201.38;10526753;28;20334;-68
2023/10/26 01:38:47;;;;;;;1.38;1.33;;;10.80;99.90;;;11.38;100.00;96199.47;10526270;28;20269;-68
2023/10/26 01:43:50;;;;;;;1.83;1.50;;;10.70;99.90;;;11.28;100.00;96190.69;10521726;28;20227;-69
2023/10/26 01:48:54;;;;;;;3.42;1.35;;;10.70;99.90;;;11.28;100.00;96185.56;10523861;28;20231;-67
2023/10/26 01:53:58;;;;;;;1.85;1.70;;;10.60;99.90;;;11.16;100.00;96191.22;10522166;28;20690;-69
2023/10/26 01:59:01;;;;;;;2.45;1.65;;;10.50;99.90;;;11.17;100.00;96187.81;10525093;28;20241;-68
2023/10/26 02:04:05;;;;;;;1.60;1.50;;;10.40;99.90;;;11.14;100.00;96190.28;10523906;28;20233;-68
2023/10/26 02:09:09;;;;;;;1.75;1.63;;;10.50;99.90;;;11.25;100.00;96181.22;10529312;28;20274;-68
2023/10/26 02:14:13;;;;;;;1.45;1.35;;;10.50;99.90;;;11.28;100.00;96183.88;10520988;28;20250;-68
2023/10/26 02:19:16;;;;;;;3.38;1.90;;;10.50;99.90;;;11.14;100.00;96185.19;10524650;28;20235;-69
2023/10/26 02:24:23;;;;;;;3.95;1.77;;;10.50;99.90;;;11.25;100.00;96178.69;10521059;28;20228;-67
2023/10/26 02:29:26;;;;;;;2.08;1.55;;;10.50;99.90;;;11.17;100.00;96185.25;10528489;28;20227;-68
2023/10/26 02:34:29;;;;;;;1.98;1.45;;;10.50;99.90;;;11.27;100.00;96177.03;10522427;28;20655;-69
2023/10/26 02:39:34;;;;;;;1.75;1.65;;;10.40;99.90;;;11.18;100.00;96184.44;10526962;28;20702;-68
2023/10/26 02:44:37;;;;;;;1.70;1.60;;;10.40;99.90;;;11.09;100.00;96180.75;10523609;28;20224;-68
2023/10/26 02:49:40;;;;;;;3.28;1.73;;;10.40;99.90;;;11.05;100.00;96187.50;10525739;28;20223;-69
2023/10/26 02:54:46;;;;;;;1.90;1.70;;;10.40;99.90;;;11.22;100.00;96188.81;10520945;28;20706;-69
2023/10/26 02:59:49;;;;;;;1.58;1.50;;;10.50;99.90;;;11.28;100.00;96188.97;10520957;28;20230;-67
2023/10/26 03:04:52;;;;;;;3.00;1.63;;;10.60;99.90;;;11.21;100.00;96184.50;10522916;28;20702;-69
2023/10/26 03:09:56;;;;;;;1.92;1.60;;;10.50;99.90;;;11.25;100.00;96194.03;10524384;28;20234;-66
2023/10/26 03:15:00;;;;;;;2.42;1.40;;;10.60;99.90;;;11.39;100.00;96201.19;10525602;28;20227;-68
2023/10/26 03:20:05;;;;;;;1.90;1.60;;;10.70;99.90;;;11.60;100.00;96188.09;10521231;28;20227;-67
2023/10/26 03:25:13;;;;;;;1.58;1.48;;;10.90;99.90;;;11.33;100.00;96195.91;10522512;28;20232;-67
2023/10/26 03:30:17;;;;;;;1.50;1.40;;;10.70;99.90;;;11.38;100.00;96190.09;10525214;28;20251;-68
2023/10/26 03:35:20;;;;;;;1.75;1.60;;;10.70;99.90;;;11.45;100.00;96191.13;10524649;28;20639;-68
2023/10/26 03:40:25;;;;;;;1.80;1.70;;;10.70;99.90;;;11.42;100.00;96185.94;10524639;28;20223;-68
2023/10/26 03:45:28;;;;;;;2.60;1.30;;;10.70;99.90;;;11.52;100.00;96187.03;10518549;28;20239;-68
2023/10/26 03:50:32;;;;;;;2.33;1.73;;;10.70;99.90;;;11.44;100.00;96180.00;10521121;28;20227;-67
2023/10/26 03:55:36;;;;;;;1.67;1.58;;;10.70;99.90;;;11.60;98.49;96181.28;10522859;28;20216;-67
2023/10/26 04:00:39;;;;;;;2.20;1.70;;;10.80;99.90;;;11.44;100.00;96174.91;10528645;28;20908;-69
2023/10/26 04:05:42;;;;;;;1.65;1.55;;;10.70;99.90;;;11.49;99.54;96185.25;10522054;28;20602;-68
2023/10/26 04:10:48;;;;;;;2.10;1.40;;;10.70;99.90;;;11.44;100.00;96174.91;10528437;28;20231;-68
2023/10/26 04:16:00;;;;;;;1.33;1.33;;;10.80;99.90;;;11.87;93.00;96163.22;10524034;28;20318;-68
2023/10/26 04:21:04;;;;;;;1.55;1.50;;;11.10;99.90;;;11.82;92.36;96148.56;10535088;28;20718;-68
2023/10/26 04:26:12;;;;;;;1.25;1.20;;;11.10;99.90;;;12.08;91.05;96165.44;10532655;28;20235;-68
2023/10/26 04:31:15;;;;;;;1.45;1.35;;;11.40;99.90;;;11.84;92.71;96157.13;10527480;28;20714;-66
2023/10/26 04:36:20;;;;;;;1.80;1.40;;;11.20;99.90;;;11.75;92.42;96150.09;10531784;28;20307;-69
2023/10/26 04:41:26;;;;;;;1.80;1.70;;;11.00;99.90;;;11.58;93.93;96147.09;10539434;28;20224;-69
2023/10/26 04:46:29;;;;;;;1.60;1.50;;;10.80;99.90;;;11.37;96.70;96159.38;10532409;28;20789;-69
2023/10/26 04:51:32;;;;;;;1.65;1.55;;;10.60;99.90;;;11.22;98.05;96157.28;10532281;28;20318;-69
2023/10/26 04:56:37;;;;;;;2.28;1.42;;;10.40;99.90;;;11.21;96.60;96151.25;10527046;28;20258;-67
2023/10/26 05:01:40;;;;;;;2.13;1.58;;;10.40;99.90;;;11.11;96.15;96158.66;10525477;28;20234;-68
2023/10/26 05:06:46;;;;;;;1.98;1.80;;;10.30;99.90;;;10.93;98.99;96159.00;10510145;28;20658;-68
2023/10/26 05:11:52;;;;;;;1.85;1.67;;;10.20;99.90;;;10.82;100.00;96151.06;10522698;28;20303;-68
2023/10/26 05:16:55;;;;;;;1.83;1.63;;;10.10;99.90;;;10.78;100.00;96134.75;10519658;28;20652;-68
2023/10/26 05:21:59;;;;;;;1.63;1.52;;;10.00;99.90;;;10.60;100.00;96141.91;10526373;28;20603;-69
2023/10/26 05:27:06;;;;;;;2.08;1.98;;;9.90;99.90;;;10.44;100.00;96127.81;10533583;28;20621;-68
2023/10/26 05:32:10;;;;;;;2.35;1.88;;;9.70;99.90;;;10.35;100.00;96133.50;10525158;28;20228;-67
2023/10/26 05:37:13;;;;;;;1.90;1.80;;;9.60;99.90;;;10.20;100.00;96137.28;10531097;28;20250;-68
2023/10/26 05:42:17;;;;;;;2.05;1.83;;;9.50;99.90;;;10.18;100.00;96134.66;10526194;28;20232;-68
2023/10/26 05:47:20;;;;;;;1.95;1.80;;;9.50;99.90;;;10.16;100.00;96136.31;10526074;28;20281;-68
2023/10/26 05:52:24;;;;;;;2.47;2.28;;;9.40;99.90;;;10.04;100.00;96130.81;10528180;28;20265;-69
2023/10/26 05:57:28;;;;;;;2.67;2.40;;;9.30;99.90;;;9.88;100.00;96139.69;10529808;28;20238;-68
2023/10/26 06:02:31;;;;;;;2.28;2.17;;;9.20;99.90;;;9.81;100.00;96136.06;10528609;28;20239;-68
2023/10/26 06:07:35;;;;;;;2.35;2.08;;;9.10;99.90;;;9.81;100.00;96135.19;10531910;28;20801;-68
2023/10/26 06:12:39;;;;;;;3.10;1.60;;;9.10;99.90;;;9.83;100.00;96131.88;10525777;28;20261;-68
2023/10/26 06:17:42;;;;;;;1.75;1.55;;;9.10;99.90;;;9.81;100.00;96123.31;10530837;28;20216;-67
2023/10/26 06:22:46;;;;;;;1.70;1.60;;;9.20;99.90;;;9.84;100.00;96128.53;10526239;28;20228;-69
2023/10/26 06:27:50;;;;;;;1.70;1.60;;;9.20;99.90;;;9.83;100.00;96128.47;10525242;28;20231;-68
2023/10/26 06:32:54;;;;;;;2.05;1.80;;;9.20;99.90;;;9.91;100.00;96142.34;10522441;28;20224;-66
2023/10/26 06:37:57;;;;;;;3.10;2.78;;;9.20;99.90;;;9.99;100.00;96142.59;10529254;28;20262;-68
2023/10/26 06:43:02;;;;;;;2.22;1.98;;;9.30;99.90;;;10.04;100.00;96135.91;10526359;28;20651;-67
2023/10/26 06:48:06;;;;;;;1.98;1.88;;;9.40;99.90;;;10.03;100.00;96129.97;10526155;28;20223;-67
2023/10/26 06:53:10;;;;;;;4.05;3.70;;;9.40;99.90;;;10.18;100.00;96129.56;10530310;28;20227;-65
2023/10/26 06:58:14;;;;;;;3.50;2.80;;;9.50;99.90;;;10.23;100.00;96137.38;10525444;28;20220;-66
2023/10/26 07:03:17;;;;;;;2.53;2.33;;;9.60;99.90;;;10.27;100.00;96140.09;10525218;28;20319;-66
2023/10/26 07:08:21;;;;;;;4.55;4.15;;;9.60;99.90;;;10.46;100.00;96131.28;10522671;28;20227;-66
2023/10/26 07:13:26;;;;;;;4.18;3.60;;;9.80;99.90;;;10.47;100.00;96148.34;10524392;28;20255;-66
2023/10/26 07:18:31;;;;;;;5.60;5.10;;;9.80;99.90;;;10.54;100.00;96146.84;10527430;28;20649;-67
2023/10/26 07:23:35;;;;;;;5.07;4.68;;;9.80;99.90;;;10.43;100.00;96143.09;10526838;28;20599;-67
2023/10/26 07:28:39;;;;;;;3.67;3.38;;;9.80;99.90;;;10.38;100.00;96138.72;10530564;28;20231;-66
2023/10/26 07:33:42;;;;;;;2.83;2.63;;;9.70;99.90;;;10.48;100.00;96139.00;10520239;28;20608;-66
2023/10/26 07:38:46;;;;;;;2.17;2.08;;;9.80;99.90;;;10.64;100.00;96145.41;10533010;28;20630;-66
2023/10/26 07:44:10;;;;;;;2.95;2.53;;;10.00;99.90;;;10.76;100.00;96133.88;10533910;28;20755;-66
2023/10/26 07:49:13;;;;;;;3.35;2.90;;;10.10;99.90;;;10.94;100.00;96135.19;10529184;28;20234;-66
2023/10/26 07:54:17;;;;;;;2.65;2.45;;;10.30;99.90;;;11.11;100.00;96138.22;10528347;28;20715;-66
2023/10/26 07:59:22;;;;;;;3.80;3.13;;;10.50;99.90;;;11.37;100.00;96124.41;10528085;28;20223;-67
2023/10/26 08:04:25;;;;;;;3.35;2.50;;;10.60;99.90;;;11.45;100.00;96134.84;10533034;28;20242;-67
2023/10/26 08:09:32;;;;;;;6.45;4.45;;;10.70;99.90;;;11.55;100.00;96136.81;10534205;28;20231;-67
2023/10/26 08:14:36;;;;;;;4.45;4.10;;;10.80;99.90;;;11.57;100.00;96124.91;10532073;28;20234;-67
2023/10/26 08:20:01;;;;;;;4.30;3.85;;;10.80;99.90;;;11.72;100.00;96129.53;10533339;28;20246;-66
2023/10/26 08:25:05;;;;;;;2.88;2.60;;;11.00;99.90;;;11.91;100.00;96105.28;10526120;28;20676;-69
2023/10/26 08:30:11;;;;;;;3.20;2.95;;;11.10;99.90;;;11.97;100.00;96100.31;10530474;28;20239;-66
2023/10/26 08:35:15;;;;;;;2.90;2.55;;;11.20;99.90;;;12.17;100.00;96099.06;10531270;28;20224;-67
2023/10/26 08:40:18;;;;;;;2.45;2.15;;;11.40;99.90;;;12.23;100.00;96100.91;10531777;28;20227;-66
2023/10/26 08:45:26;;;;;;;2.10;2.00;;;11.40;99.90;;;12.36;100.00;96099.44;10529565;28;20252;-67
2023/10/26 08:50:29;;;;;;;3.05;2.10;;;11.60;99.90;;;12.56;100.00;96099.88;10530403;28;20787;-66
2023/10/26 08:55:33;;;;;;;3.53;2.25;;;11.80;99.90;;;12.69;100.00;96117.25;10526141;28;20753;-67
2023/10/26 09:00:40;;;;;;;2.25;2.00;;;11.90;99.90;;;12.77;100.00;96122.53;10527869;28;20245;-66
2023/10/26 09:05:53;;;;;;;2.58;2.38;;;12.00;99.90;;;12.90;100.00;96134.75;10532117;28;20639;-68
2023/10/26 09:10:56;;;;;;;2.97;2.53;;;12.10;99.90;;;12.97;100.00;96131.50;10525396;28;20223;-67
2023/10/26 09:16:01;;;;;;;2.83;2.53;;;12.20;99.90;;;13.28;99.13;96124.41;10527065;28;20695;-67
2023/10/26 09:21:06;;;;;;;1.85;1.75;;;12.40;99.90;;;13.49;96.61;96123.94;10523833;28;20301;-66
2023/10/26 09:26:11;;;;;;;2.42;1.95;;;12.70;99.90;;;13.82;95.52;96110.78;10526836;28;20223;-66
2023/10/26 09:31:15;;;;;;;2.13;1.80;;;12.90;99.90;;;13.96;96.08;96124.72;10530808;28;20307;-67
2023/10/26 09:36:21;;;;;;;2.08;1.85;;;13.10;99.90;;;14.22;95.19;96118.22;10528295;28;20721;-66
2023/10/26 09:41:24;;;;;;;2.05;1.92;;;13.30;99.90;;;14.19;95.10;96132.78;10532467;28;20318;-67
2023/10/26 09:46:29;;;;;;;2.45;2.20;;;13.30;99.90;;;14.39;94.67;96130.50;10522682;28;20220;-66
2023/10/26 09:51:32;;;;;;;1.50;1.40;;;13.50;99.90;;;14.45;95.14;96129.72;10528868;28;20223;-67
2023/10/26 09:56:39;;;;;;;1.63;1.50;;;13.50;99.90;;;14.16;99.42;96134.41;10527401;28;20223;-66
2023/10/26 10:01:45;;;;;;;1.98;1.88;;;13.30;99.90;;;14.18;97.11;96120.75;10530812;28;20240;-66
2023/10/26 10:06:51;;;;;;;1.63;1.52;;;13.40;99.90;;;13.77;100.00;96142.38;10522788;28;20706;-66
2023/10/26 10:12:31;;;;;;;2.13;1.85;;;13.10;99.90;;;13.36;100.00;96124.53;10528523;28;20239;-67
2023/10/26 10:18:07;;;;;;;2.20;2.10;;;12.70;99.90;;;13.15;100.00;96153.19;10470192;28;20652;-67
2023/10/26 10:23:32;;;;;;;1.77;1.40;;;12.50;99.90;;;12.94;100.00;96162.19;10497045;28;20320;-68
2023/10/26 10:28:48;;;;;;;1.92;1.75;;;12.40;99.90;;;12.67;100.00;96130.84;10526477;28;20249;-67
2023/10/26 10:34:03;;;;;;;3.70;3.40;;;12.10;99.90;;;12.45;100.00;96130.41;10522962;28;20545;-68
2023/10/26 10:39:23;;;;;;;3.28;2.97;;;12.00;99.90;;;12.27;100.00;96106.94;10525556;28;20208;-67
2023/10/26 10:44:29;;;;;;;3.10;2.90;;;11.90;99.90;;;12.20;100.00;96097.41;10527909;28;20572;-69
2023/10/26 10:49:33;;;;;;;3.40;3.10;;;11.80;99.90;;;12.24;100.00;96117.13;10525374;28;20249;-68
2023/10/26 10:54:36;;;;;;;4.18;3.20;;;11.90;99.90;;;12.24;100.00;96110.28;10521364;28;20227;-67
2023/10/26 10:59:59;;;;;;;2.53;2.33;;;11.90;99.90;;;12.14;100.00;96106.69;10525599;28;20578;-68
2023/10/26 11:05:05;;;;;;;3.00;2.80;;;11.80;99.90;;;12.07;100.00;96106.50;10529138;28;20231;-68
2023/10/26 11:10:20;;;;;;;2.30;2.20;;;11.70;99.90;;;12.14;100.00;96106.69;10530850;28;20227;-68
2023/10/26 11:15:32;;;;;;;2.00;1.90;;;11.80;99.90;;;12.26;100.00;96098.41;10531513;28;20231;-69
2023/10/26 11:20:41;;;;;;;1.80;1.70;;;11.80;99.90;;;12.28;100.00;96101.00;10526074;28;20254;-68
2023/10/26 11:25:46;;;;;;;2.03;1.92;;;11.80;99.90;;;12.31;100.00;96095.94;10536204;28;20219;-69
2023/10/26 11:30:52;;;;;;;1.65;1.55;;;11.90;99.90;;;12.42;100.00;96085.91;10526268;28;20234;-68
2023/10/26 11:35:57;;;;;;;2.50;2.30;;;11.90;99.90;;;12.44;100.00;96077.41;10532422;28;20238;-70
2023/10/26 11:41:01;;;;;;;2.05;1.95;;;11.90;99.90;;;12.49;100.00;96086.06;10528988;28;20231;-69
2023/10/26 11:46:04;;;;;;;2.35;2.15;;;11.90;99.90;;;12.51;100.00;96084.41;10532009;28;20292;-69
2023/10/26 11:51:09;;;;;;;1.75;1.55;;;12.00;99.90;;;12.62;100.00;96082.09;10537284;28;20714;-68
2023/10/26 11:56:12;;;;;;;1.83;1.73;;;12.00;99.90;;;12.60;100.00;96086.31;10531306;28;20238;-68
2023/10/26 12:01:15;;;;;;;2.05;1.95;;;12.10;99.90;;;12.63;100.00;96089.78;10528870;28;20231;-67
2023/10/26 12:06:19;;;;;;;2.25;2.15;;;12.10;99.90;;;12.72;100.00;96108.75;10533739;28;20224;-71
2023/10/26 12:11:23;;;;;;;65.72;58.63;;;12.20;99.90;;;12.80;100.00;96108.06;10524826;28;20245;-67
2023/10/26 12:16:26;;;;;;;5.13;4.72;;;12.20;99.90;;;12.81;100.00;96096.13;10525227;28;20603;-69
2023/10/26 12:21:30;;;;;;;3.55;3.22;;;12.20;99.90;;;12.93;100.00;96092.91;10534293;28;20224;-69
2023/10/26 12:26:33;;;;;;;2.22;2.13;;;12.30;99.90;;;13.03;100.00;96077.75;10525259;28;20250;-68
2023/10/26 12:31:36;;;;;;;2.80;2.63;;;12.40;99.90;;;13.28;100.00;96073.09;10528103;28;20227;-67
2023/10/26 12:36:41;;;;;;;2.20;2.10;;;12.70;99.90;;;13.49;100.00;96050.34;10530435;28;20231;-68
2023/10/26 12:41:44;;;;;;;2.95;2.20;;;12.90;99.90;;;13.67;100.00;96043.78;10529938;28;20285;-68
2023/10/26 12:46:50;;;;;;;2.10;2.00;;;13.00;99.90;;;13.71;100.00;96049.00;10527032;28;20242;-70
2023/10/26 12:51:54;;;;;;;2.17;2.03;;;13.10;99.90;;;13.74;100.00;96055.88;10530631;28;20726;-68
2023/10/26 12:56:57;;;;;;;2.22;2.05;;;13.10;99.90;;;13.87;100.00;96047.50;10531092;28;20212;-68
2023/10/26 13:02:00;;;;;;;2.13;1.88;;;13.20;99.90;;;13.94;100.00;96046.78;10525359;28;20235;-68
2023/10/26 13:07:05;;;;;;;1.98;1.88;;;13.30;99.90;;;13.84;100.00;96036.34;10529862;28;20314;-67
2023/10/26 13:12:09;;;;;;;1.75;1.65;;;13.30;99.90;;;13.74;100.00;96025.06;10523335;28;20224;-69
2023/10/26 13:17:12;;;;;;;1.80;1.70;;;13.20;99.90;;;13.83;100.00;96027.78;10524560;28;20237;-69
2023/10/26 13:22:17;;;;;;;1.85;1.75;;;13.30;99.90;;;13.87;100.00;96016.69;10530662;28;20608;-67
2023/10/26 13:27:20;;;;;;;1.73;1.63;;;13.30;99.90;;;13.78;100.00;96021.69;10525303;28;20228;-68
2023/10/26 13:32:23;;;;;;;1.67;1.58;;;13.20;99.90;;;14.05;100.00;96020.34;10525052;28;20239;-69
2023/10/26 13:37:27;;;;;;;1.80;1.70;;;13.40;99.90;;;13.98;100.00;96006.56;10528454;28;20306;-69
2023/10/26 13:42:31;;;;;;;2.75;2.20;;;13.40;99.90;;;13.86;100.00;96002.13;10519259;28;20223;-70
2023/10/26 13:47:34;;;;;;;3.20;3.10;;;13.40;99.90;;;13.90;100.00;95991.03;10524571;28;20695;-69
2023/10/26 13:52:38;;;;;;;1.90;1.80;;;13.40;99.90;;;14.01;100.00;95987.78;10524243;28;20711;-69
2023/10/26 13:57:41;;;;;;;1.90;1.70;;;13.50;99.90;;;14.19;100.00;95996.59;10526291;28;20588;-69
2023/10/26 14:02:45;;;;;;;1.65;1.63;;;13.60;99.90;;;14.19;100.00;95977.72;10524730;28;20255;-69
2023/10/26 14:07:49;;;;;;;2.28;1.85;;;13.50;99.90;;;13.95;100.00;95989.41;10525940;28;20220;-69
2023/10/26 14:12:52;;;;;;;2.25;2.10;;;13.40;99.90;;;13.85;100.00;95987.56;10527780;28;20589;-69
2023/10/26 14:17:56;;;;;;;2.97;2.70;;;13.40;99.90;;;13.92;100.00;95979.09;10516327;28;20246;-68
2023/10/26 14:23:03;;;;;;;2.90;2.70;;;13.30;99.90;;;13.75;100.00;95971.16;10524496;28;20223;-68
2023/10/26 14:28:08;;;;;;;4.28;3.25;;;13.20;99.90;;;13.88;100.00;95961.94;10524297;28;20694;-67
2023/10/26 14:33:11;;;;;;;5.00;4.53;;;13.30;99.90;;;13.67;100.00;95956.47;10513849;28;20232;-68
2023/10/26 14:38:15;;;;;;;9.45;7.05;;;13.20;99.90;;;13.65;100.00;95951.34;10519506;28;20626;-66
2023/10/26 14:43:19;;;;;;;108.55;52.38;;;13.10;99.90;;;13.84;100.00;95957.56;10524650;28;20749;-69
2023/10/26 14:48:22;;;;;;;22.42;15.10;;;13.30;99.90;;;13.74;100.00;95974.56;10510502;28;20228;-69
2023/10/26 14:53:27;;;;;;;4.78;4.38;;;13.20;99.90;;;13.70;100.00;95961.66;10512065;28;20227;-68
2023/10/26 14:58:30;;;;;;;6.25;5.75;;;13.10;99.90;;;13.71;100.00;95948.00;10518455;28;20269;-67
2023/10/26 15:03:33;;;;;;;4.80;4.40;;;13.20;99.90;;;13.53;100.00;95963.97;10521749;28;20757;-67
2023/10/26 15:08:38;;;;;;;5.70;4.55;;;13.10;99.90;;;13.46;100.00;95949.34;10528837;28;20227;-68
2023/10/26 15:13:41;;;;;;;5.18;4.72;;;13.00;99.90;;;13.55;100.00;95952.03;10523179;28;20238;-68
2023/10/26 15:18:44;;;;;;;5.18;4.68;;;13.10;99.90;;;13.58;100.00;95948.66;10511629;28;20226;-68
2023/10/26 15:23:49;;;;;;;8.68;7.72;;;13.10;99.90;;;13.55;100.00;95943.50;10520004;28;20220;-68
2023/10/26 15:28:52;;;;;;;6.20;5.60;;;13.10;99.90;;;13.52;100.00;95942.59;10517218;28;20235;-68
2023/10/26 15:33:55;;;;;;;11.27;10.02;;;13.10;99.90;;;13.58;100.00;95938.38;10519216;28;20271;-68
2023/10/26 15:39:04;;;;;;;9.77;7.78;;;13.10;99.90;;;13.53;100.00;95943.44;10520164;28;20760;-67
2023/10/26 15:44:07;;;;;;;7.40;6.75;;;13.00;99.90;;;13.60;100.00;95942.72;10512162;28;20232;-68
2023/10/26 15:49:10;;;;;;;10.80;9.07;;;13.00;99.90;;;13.74;100.00;95937.78;10514860;28;20228;-67
2023/10/26 15:54:35;;;;;;;7.28;5.00;;;13.10;99.90;;;13.78;100.00;95931.81;10510760;28;20724;-69
2023/10/26 15:59:38;;;;;;;14.15;12.80;;;13.20;99.90;;;13.63;100.00;95929.91;10511929;28;20617;-68
2023/10/26 16:04:41;;;;;;;7.07;5.28;;;13.10;99.90;;;13.57;100.00;95944.38;10508964;28;20235;-68
2023/10/26 16:09:46;;;;;;;6.57;5.47;;;13.10;99.90;;;13.56;100.00;95948.63;10516818;28;20278;-68
2023/10/26 16:14:49;;;;;;;8.30;4.63;;;13.00;99.90;;;13.63;100.00;95949.59;10508830;28;20228;-68
2023/10/26 16:19:52;;;;;;;7.70;4.35;;;13.10;99.90;;;13.65;100.00;95948.78;10508857;28;20229;-68
2023/10/26 16:24:57;;;;;;;13.23;11.88;;;13.10;99.90;;;13.68;100.00;95963.38;10513531;28;20232;-68
2023/10/26 16:30:00;;;;;;;7.82;6.25;;;13.10;99.90;;;13.46;100.00;95963.03;10522853;28;20338;-69
2023/10/26 16:35:05;;;;;;;8.82;5.25;;;13.00;99.90;;;13.42;100.00;95975.78;10511509;28;20759;-70
2023/10/26 16:40:11;;;;;;;12.30;9.65;;;12.90;99.90;;;13.36;100.00;95971.41;10526503;28;20314;-68
2023/10/26 16:45:14;;;;;;;9.15;6.38;;;12.90;99.90;;;13.46;100.00;95972.44;10524578;28;20228;-68
2023/10/26 16:50:18;;;;;;;10.57;5.68;;;12.90;99.90;;;13.35;100.00;95964.56;10527174;28;20223;-69
2023/10/26 16:55:22;;;;;;;9.30;4.78;;;12.80;99.90;;;13.21;100.00;95961.75;10524395;28;20238;-67
2023/10/26 17:00:25;;;;;;;9.05;4.45;;;12.70;99.90;;;13.23;100.00;95965.22;10517761;28;20230;-68
2023/10/26 17:05:28;;;;;;;10.77;6.38;;;12.70;99.90;;;13.19;100.00;95972.81;10529933;28;20262;-68
2023/10/26 17:10:33;;;;;;;7.72;4.43;;;12.60;99.90;;;13.26;100.00;95977.28;10525847;27;20234;-68
2023/10/26 17:15:36;;;;;;;5.60;4.20;;;12.70;99.90;;;13.24;100.00;95991.72;10524862;28;20227;-68
2023/10/26 17:20:39;;;;;;;8.18;5.60;;;12.60;99.90;;;13.19;100.00;95978.84;10522414;28;20224;-68
2023/10/26 17:25:44;;;;;;;9.20;6.68;;;12.60;99.90;;;13.10;100.00;95988.94;10515271;28;20234;-67
2023/10/26 17:30:47;;;;;;;8.93;4.13;;;12.60;99.90;;;13.11;100.00;95979.56;10515045;28;20715;-68
2023/10/26 17:35:51;;;;;;;11.98;8.63;;;12.50;99.90;;;13.06;100.00;95970.06;10509016;28;20342;-68
2023/10/26 17:41:07;;;;;;;8.05;5.38;;;12.40;99.90;;;13.01;100.00;95978.53;10508855;28;20239;-69
2023/10/26 17:46:10;;;;;;;9.82;4.90;;;12.40;99.90;;;12.93;100.00;95969.81;10504609;28;20604;-70
2023/10/26 17:51:16;;;;;;;5.47;4.28;;;12.30;99.90;;;12.88;100.00;95979.13;10508360;28;20692;-68
2023/10/26 17:56:21;;;;;;;6.40;5.70;;;12.30;99.90;;;12.78;100.00;95981.53;10511378;28;20220;-68
2023/10/26 18:01:25;;;;;;;7.10;5.03;;;12.20;99.90;;;12.77;100.00;95994.34;10506195;28;20236;-68
2023/10/26 18:06:31;;;;;;;6.60;4.72;;;12.20;99.90;;;12.71;100.00;95989.13;10508289;28;20216;-68
2023/10/26 18:11:36;;;;;;;8.30;4.03;;;12.10;99.90;;;12.73;100.00;95979.72;10511972;28;20620;-68
2023/10/26 18:16:39;;;;;;;8.70;3.70;;;12.10;99.90;;;12.67;100.00;95979.63;10511260;28;20693;-67
2023/10/26 18:21:42;;;;;;;8.57;3.50;;;12.00;99.90;;;12.60;100.00;95984.66;10513128;28;20230;-67
2023/10/26 18:26:46;;;;;;;9.32;3.60;;;12.10;99.90;;;12.73;100.00;95985.72;10515839;28;20243;-67
2023/10/26 18:31:50;;;;;;;5.70;3.38;;;12.10;99.90;;;12.72;100.00;95986.56;10508606;28;20231;-67
2023/10/26 18:36:54;;;;;;;6.32;3.42;;;12.10;99.90;;;12.78;100.00;95980.69;10513630;28;20223;-67
2023/10/26 18:41:58;;;;;;;4.78;3.05;;;12.20;99.90;;;12.61;100.00;95978.66;10505647;28;20344;-67
2023/10/26 18:47:04;;;;;;;8.00;3.22;;;12.10;99.90;;;12.59;100.00;95979.47;10503025;28;20219;-67
2023/10/26 18:52:07;;;;;;;8.43;4.22;;;12.00;99.90;;;12.61;100.00;95977.81;10512017;28;20234;-67
2023/10/26 18:57:11;;;;;;;7.28;3.70;;;12.00;99.90;;;12.76;100.00;95987.47;10507348;28;20361;-67
2023/10/26 19:02:14;;;;;;;8.65;3.53;;;12.10;99.90;;;12.65;100.00;95981.28;10507309;28;20611;-67
2023/10/26 19:07:18;;;;;;;6.22;3.13;;;12.20;99.90;;;12.55;100.00;95985.38;10502308;28;20224;-67
2023/10/26 19:12:22;;;;;;;6.43;3.50;;;12.00;99.90;;;12.30;100.00;95977.22;10498359;28;21341;-67
2023/10/26 19:17:25;;;;;;;6.18;3.70;;;11.80;99.90;;;12.25;100.00;95980.56;10514764;28;20223;-67
2023/10/26 19:22:29;;;;;;;7.43;3.83;;;11.80;99.90;;;12.17;100.00;95975.28;10523558;28;20247;-67
2023/10/26 19:27:34;;;;;;;8.05;4.03;;;11.70;99.90;;;12.03;100.00;95969.84;10524522;28;20604;-66
2023/10/26 19:32:37;;;;;;;6.07;3.42;;;11.60;99.90;;;12.03;100.00;95987.78;10516292;28;20246;-67
2023/10/26 19:37:41;;;;;;;6.50;3.63;;;11.60;99.90;;;11.92;100.00;95989.25;10527454;28;20219;-67
2023/10/26 19:42:46;;;;;;;6.22;3.40;;;11.50;99.90;;;11.99;100.00;95982.56;10526023;28;20228;-66
2023/10/26 19:47:51;;;;;;;5.43;3.25;;;11.50;99.90;;;11.97;100.00;95985.09;10522541;28;20216;-67
2023/10/26 19:52:55;;;;;;;12.00;4.22;;;11.50;99.90;;;12.22;100.00;95978.78;10522290;28;20278;-67
2023/10/26 19:57:59;;;;;;;5.72;4.35;;;11.60;99.90;;;11.91;100.00;95977.28;10525090;28;20727;-67
2023/10/26 20:03:03;;;;;;;5.93;4.18;;;11.50;99.90;;;11.89;100.00;95978.94;10521754;28;20228;-67
2023/10/26 20:08:07;;;;;;;8.48;4.07;;;11.40;99.90;;;11.89;100.00;95978.94;10524252;28;20310;-67
2023/10/26 20:13:11;;;;;;;7.90;4.03;;;11.50;99.90;;;11.85;100.00;95972.91;10524524;28;20228;-66
2023/10/26 20:18:15;;;;;;;6.70;5.00;;;11.40;99.90;;;11.79;100.00;95962.50;10524082;28;20235;-68
2023/10/26 20:23:19;;;;;;;7.47;3.95;;;11.30;99.90;;;11.82;100.00;95961.72;10528996;28;20234;-68
2023/10/26 20:28:23;;;;;;;5.60;3.85;;;11.30;99.90;;;11.81;100.00;95945.47;10525716;28;20245;-67
2023/10/26 20:33:27;;;;;;;6.05;3.20;;;11.40;99.90;;;11.79;100.00;95947.16;10523471;28;20705;-67
2023/10/26 20:38:31;;;;;;;6.38;3.85;;;11.30;99.90;;;11.73;100.00;95950.44;10526458;28;20714;-67
2023/10/26 20:43:35;;;;;;;5.38;3.50;;;11.30;99.90;;;11.76;100.00;95941.97;10525576;28;20733;-67
2023/10/26 20:48:41;;;;;;;5.47;3.97;;;11.20;99.90;;;11.72;100.00;95929.91;10524642;28;20227;-68
2023/10/26 20:53:44;;;;;;;11.45;6.28;;;11.20;99.90;;;11.63;100.00;95920.34;10526049;28;20231;-68
2023/10/26 20:58:49;;;;;;;7.80;4.82;;;11.10;99.90;;;11.59;100.00;95917.69;10522716;28;20216;-66